Time;durP1;ratioP1;P1;durP2;ratioP2;P2;SDS_P1;SDS_P2;PMS_P1;PMS_P2;Temp;Humidity;BMP_temperature;BMP_pressure;BME280_temperature;BME280_humidity;BME280_pressure;Samples;Min_cycle;Max_cycle;Signal;HPM_P1;HPM_P2
2022/08/18 00:02:12;;;;;;;27.40;8.00;;;19.00;99.90;;;;;;5102905;28;20044;-65
2022/08/18 00:04:39;;;;;;;33.83;9.40;;;18.70;99.90;;;;;;5079340;28;20055;-65
2022/08/18 00:07:12;;;;;;;30.00;9.85;;;18.90;99.90;;;;;;5102497;28;20043;-64
2022/08/18 00:09:39;;;;;;;36.83;9.40;;;19.10;99.90;;;;;;5101690;28;20126;-64
2022/08/18 00:12:28;;;;;;;34.08;8.45;;;18.80;99.90;;;;;;5085915;28;20040;-64
2022/08/18 00:14:56;;;;;;;28.35;8.23;;;18.80;99.90;;;;;;5093336;28;20043;-64
2022/08/18 00:17:22;;;;;;;32.97;8.95;;;18.90;99.90;;;;;;5102324;28;20137;-66
2022/08/18 00:19:49;;;;;;;31.67;7.55;;;19.20;99.90;;;;;;5073809;28;20043;-63
2022/08/18 00:22:18;;;;;;;33.15;7.82;;;18.70;99.90;;;;;;5074064;28;20508;-63
2022/08/18 00:24:46;;;;;;;31.67;7.70;;;19.20;99.90;;;;;;5091807;27;20035;-63
2022/08/18 00:27:12;;;;;;;34.03;8.32;;;19.00;99.90;;;;;;5089942;28;20174;-64
2022/08/18 00:29:38;;;;;;;29.50;7.65;;;19.10;99.90;;;;;;5092392;28;20584;-63
2022/08/18 00:32:16;;;;;;;27.15;7.40;;;18.60;99.90;;;;;;5091327;28;20056;-64
2022/08/18 00:34:42;;;;;;;24.20;6.93;;;18.70;99.90;;;;;;5089438;28;20134;-64
2022/08/18 00:37:08;;;;;;;29.85;7.95;;;18.60;99.90;;;;;;5090387;28;20182;-64
2022/08/18 00:39:33;;;;;;;29.35;6.45;;;18.80;99.90;;;;;;5090466;28;20031;-64
2022/08/18 00:42:10;;;;;;;22.92;6.63;;;18.70;99.90;;;;;;5108331;27;20062;-64
2022/08/18 00:44:36;;;;;;;26.92;7.75;;;19.00;99.90;;;;;;5089946;28;20379;-63
2022/08/18 00:47:02;;;;;;;29.25;7.78;;;19.00;99.90;;;;;;5090408;28;20040;-64
2022/08/18 00:49:27;;;;;;;28.45;8.10;;;18.50;99.90;;;;;;5072575;28;20043;-63
2022/08/18 00:51:54;;;;;;;29.63;7.32;;;19.00;99.90;;;;;;5090412;28;20074;-63
2022/08/18 00:54:27;;;;;;;29.30;7.03;;;18.40;99.90;;;;;;5091093;28;20577;-63
2022/08/18 00:56:59;;;;;;;31.90;7.53;;;18.90;99.90;;;;;;5090650;28;20567;-63
2022/08/18 00:59:35;;;;;;;22.63;5.90;;;18.80;99.90;;;;;;5091300;28;20127;-63
2022/08/18 01:02:05;;;;;;;26.70;7.22;;;18.80;99.90;;;;;;5089409;28;20088;-64
2022/08/18 01:04:43;;;;;;;29.73;6.22;;;18.70;99.90;;;;;;5089942;28;20589;-64
2022/08/18 01:07:39;;;;;;;25.23;7.28;;;18.60;99.90;;;;;;5090946;28;20498;-65
2022/08/18 01:10:05;;;;;;;27.48;8.32;;;19.00;99.90;;;;;;5088260;28;20061;-63
2022/08/18 01:12:32;;;;;;;21.98;6.50;;;18.50;99.90;;;;;;5089917;28;20067;-63
2022/08/18 01:14:58;;;;;;;28.33;7.07;;;19.00;99.90;;;;;;5089802;28;20052;-63
2022/08/18 01:23:13;;;;;;;26.00;9.63;;;18.90;99.90;;;;;;5089712;28;20144;-64
2022/08/18 01:28:25;;;;;;;28.92;9.60;;;18.60;99.90;;;;;;5090369;28;20074;-63
2022/08/18 01:30:54;;;;;;;28.25;9.32;;;18.90;99.90;;;;;;5089348;28;20047;-63
2022/08/18 01:33:20;;;;;;;30.63;9.50;;;18.70;99.90;;;;;;5064426;28;20248;-64
2022/08/18 01:35:48;;;;;;;30.92;9.20;;;18.80;99.90;;;;;;5089102;28;20051;-63
2022/08/18 01:38:17;;;;;;;27.65;9.23;;;18.60;99.90;;;;;;5089934;28;21758;-63
2022/08/18 01:40:44;;;;;;;35.25;9.55;;;18.70;99.90;;;;;;5064664;28;20357;-64
2022/08/18 01:43:10;;;;;;;25.15;8.13;;;18.70;99.90;;;;;;5089383;28;20463;-63
2022/08/18 01:45:36;;;;;;;24.60;9.10;;;18.80;99.90;;;;;;5088682;28;20047;-63
2022/08/18 01:48:03;;;;;;;36.20;10.20;;;18.70;99.90;;;;;;5091018;28;20035;-63
2022/08/18 01:50:32;;;;;;;30.92;9.57;;;18.90;99.90;;;;;;5071694;28;20038;-63
2022/08/18 01:52:57;;;;;;;28.83;8.52;;;19.10;99.90;;;;;;5089633;28;20047;-63
2022/08/18 01:55:25;;;;;;;23.20;8.18;;;19.30;99.90;;;;;;5088865;28;20043;-62
2022/08/18 01:57:51;;;;;;;22.55;7.25;;;18.90;99.90;;;;;;5088639;28;20377;-63
2022/08/18 02:00:17;;;;;;;35.33;9.30;;;19.30;99.90;;;;;;5090373;28;20135;-64
2022/08/18 02:02:43;;;;;;;28.00;8.52;;;18.90;99.90;;;;;;5089068;28;20056;-63
2022/08/18 02:05:15;;;;;;;26.30;8.48;;;18.80;99.90;;;;;;5088328;28;20345;-63
2022/08/18 02:07:41;;;;;;;21.85;7.82;;;18.80;99.90;;;;;;5089148;28;20071;-63
2022/08/18 02:10:09;;;;;;;23.90;7.88;;;19.40;99.90;;;;;;5089053;28;20060;-63
2022/08/18 02:12:36;;;;;;;22.30;6.75;;;19.40;99.90;;;;;;5079882;28;20048;-63
2022/08/18 02:15:02;;;;;;;19.75;7.90;;;19.00;99.90;;;;;;5088390;28;20448;-63
2022/08/18 02:17:28;;;;;;;21.70;7.78;;;18.90;99.90;;;;;;5088678;28;20043;-63
2022/08/18 02:19:54;;;;;;;22.38;7.07;;;19.30;99.90;;;;;;5088512;28;20044;-64
2022/08/18 02:22:19;;;;;;;23.25;7.88;;;19.40;99.90;;;;;;5088974;28;20089;-63
2022/08/18 02:24:46;;;;;;;20.98;8.15;;;19.40;99.90;;;;;;5090312;28;20454;-63
2022/08/18 02:27:13;;;;;;;22.40;7.90;;;19.50;99.90;;;;;;5070911;28;20482;-62
2022/08/18 02:29:40;;;;;;;17.20;8.55;;;19.20;99.90;;;;;;5088898;28;20681;-63
2022/08/18 02:32:06;;;;;;;19.35;7.65;;;19.60;99.90;;;;;;5089078;28;20390;-62
2022/08/18 02:34:32;;;;;;;18.83;8.10;;;19.40;99.90;;;;;;5088725;28;20035;-63
2022/08/18 02:37:01;;;;;;;20.60;7.65;;;19.30;99.90;;;;;;5089107;28;20391;-63
2022/08/18 02:39:27;;;;;;;22.90;8.43;;;19.50;99.90;;;;;;5089009;28;20147;-63
2022/08/18 02:41:53;;;;;;;23.38;9.65;;;19.00;99.90;;;;;;5088301;28;20381;-63
2022/08/18 02:44:19;;;;;;;24.05;9.68;;;19.20;99.90;;;;;;5070691;28;20664;-63
2022/08/18 02:46:45;;;;;;;25.08;9.65;;;19.20;99.90;;;;;;5087755;28;20074;-63
2022/08/18 02:49:11;;;;;;;21.77;9.55;;;19.10;99.90;;;;;;5087475;28;20241;-63
2022/08/18 02:51:38;;;;;;;26.55;9.27;;;19.00;99.90;;;;;;5072509;28;20044;-64
2022/08/18 02:54:08;;;;;;;31.88;10.43;;;18.60;99.90;;;;;;5088415;28;20035;-62
2022/08/18 02:56:34;;;;;;;25.52;8.93;;;19.00;99.90;;;;;;5071828;28;20528;-64
2022/08/18 02:59:04;;;;;;;22.15;8.63;;;18.80;99.90;;;;;;5088439;28;20300;-65
2022/08/18 03:01:37;;;;;;;21.27;7.50;;;18.80;99.90;;;;;;5087187;28;20044;-64
2022/08/18 03:04:05;;;;;;;23.95;7.85;;;19.00;99.90;;;;;;5087925;28;20566;-65
2022/08/18 03:06:32;;;;;;;27.63;6.60;;;18.60;99.90;;;;;;5087741;28;20461;-65
2022/08/18 03:08:58;;;;;;;21.27;6.50;;;19.10;99.90;;;;;;5087664;28;20583;-64
2022/08/18 03:11:26;;;;;;;25.02;7.57;;;19.00;99.90;;;;;;5086365;28;20208;-65
2022/08/18 03:13:52;;;;;;;24.40;7.68;;;19.10;99.90;;;;;;5087830;28;20055;-66
2022/08/18 03:16:20;;;;;;;17.20;5.32;;;19.00;99.90;;;;;;5088589;28;20092;-64
2022/08/18 03:18:46;;;;;;;16.48;5.25;;;18.60;99.90;;;;;;5087507;28;20123;-64
2022/08/18 03:21:20;;;;;;;20.63;6.07;;;18.70;99.90;;;;;;5087626;28;20043;-66
2022/08/18 03:23:46;;;;;;;15.40;5.07;;;18.60;99.90;;;;;;5088496;28;20386;-63
2022/08/18 03:26:15;;;;;;;20.42;6.00;;;18.70;99.90;;;;;;5088458;28;20035;-64
2022/08/18 03:28:44;;;;;;;16.13;4.28;;;18.60;99.90;;;;;;5087798;28;20044;-64
2022/08/18 03:31:13;;;;;;;15.52;5.07;;;18.80;99.90;;;;;;5088619;28;20258;-64
2022/08/18 03:33:41;;;;;;;22.95;6.47;;;18.70;99.90;;;;;;5088306;28;20044;-65
2022/08/18 03:36:11;;;;;;;18.52;5.35;;;19.10;99.90;;;;;;5088086;28;20052;-64
2022/08/18 03:38:38;;;;;;;20.23;7.47;;;18.80;99.90;;;;;;5088063;28;20035;-64
2022/08/18 03:41:07;;;;;;;20.00;7.20;;;19.10;99.90;;;;;;5088597;28;20055;-64
2022/08/18 03:43:33;;;;;;;19.75;6.80;;;18.70;99.90;;;;;;5088018;28;20127;-64
2022/08/18 03:46:04;;;;;;;22.13;6.50;;;19.10;99.90;;;;;;5088094;28;20036;-64
2022/08/18 03:48:31;;;;;;;20.10;6.90;;;19.10;99.90;;;;;;5087015;28;20189;-64
2022/08/18 03:51:10;;;;;;;23.95;7.05;;;18.70;99.90;;;;;;5087971;28;20596;-64
2022/08/18 03:53:36;;;;;;;21.50;6.70;;;18.80;99.90;;;;;;5088344;28;20040;-64
2022/08/18 03:56:16;;;;;;;22.23;7.93;;;18.70;99.90;;;;;;5070742;28;20105;-63
2022/08/18 03:58:48;;;;;;;28.15;8.07;;;18.70;99.90;;;;;;5089299;28;20035;-63
2022/08/18 04:01:21;;;;;;;25.42;8.45;;;19.10;99.90;;;;;;5089703;28;20047;-65
2022/08/18 04:03:49;;;;;;;22.17;8.88;;;19.00;99.90;;;;;;5091561;28;20147;-64
2022/08/18 04:06:21;;;;;;;23.15;9.05;;;18.80;99.90;;;;;;5088027;28;20062;-64
2022/08/18 04:08:49;;;;;;;23.42;9.40;;;18.80;99.90;;;;;;5090067;28;20046;-65
2022/08/18 04:11:15;;;;;;;22.27;9.43;;;19.00;99.90;;;;;;5075921;28;20092;-65
2022/08/18 04:13:41;;;;;;;26.05;9.10;;;18.90;99.90;;;;;;5110247;27;20039;-64
2022/08/18 04:16:08;;;;;;;17.27;7.88;;;19.10;99.90;;;;;;5092825;28;20374;-64
2022/08/18 04:18:34;;;;;;;16.08;7.32;;;18.70;99.90;;;;;;5091931;28;20562;-64
2022/08/18 04:21:06;;;;;;;21.27;8.10;;;18.80;99.90;;;;;;5091937;28;20047;-65
2022/08/18 04:23:36;;;;;;;19.08;7.53;;;18.70;99.90;;;;;;5094404;28;20113;-64
2022/08/18 04:26:03;;;;;;;17.17;8.10;;;18.70;99.90;;;;;;5094200;28;20062;-64
2022/08/18 04:28:29;;;;;;;18.02;8.13;;;18.80;99.90;;;;;;5093129;28;20465;-64
2022/08/18 04:30:58;;;;;;;19.02;8.45;;;19.20;99.90;;;;;;5092211;28;20066;-65
2022/08/18 04:33:27;;;;;;;19.63;9.02;;;18.80;99.90;;;;;;5092595;28;20099;-64
2022/08/18 04:35:54;;;;;;;20.38;8.45;;;19.10;99.90;;;;;;5093452;28;20039;-64
2022/08/18 04:38:21;;;;;;;23.25;8.18;;;18.90;99.90;;;;;;5092599;28;20106;-64
2022/08/18 04:40:47;;;;;;;14.40;7.00;;;18.80;99.90;;;;;;5076761;28;20564;-64
2022/08/18 04:43:14;;;;;;;14.90;6.65;;;19.20;99.90;;;;;;5074197;28;20031;-64
2022/08/18 04:45:46;;;;;;;12.52;5.57;;;18.90;99.90;;;;;;5092985;28;20377;-64
2022/08/18 04:48:14;;;;;;;16.23;7.20;;;19.40;99.90;;;;;;5091572;28;20036;-64
2022/08/18 04:50:41;;;;;;;19.00;6.80;;;19.20;99.90;;;;;;5092001;28;20047;-64
2022/08/18 04:55:54;;;;;;;16.80;7.32;;;19.40;99.90;;;;;;5091627;28;20055;-63
2022/08/18 04:58:21;;;;;;;18.45;6.80;;;19.30;99.90;;;;;;5091675;28;20531;-65
2022/08/18 05:00:57;;;;;;;19.05;7.53;;;19.30;99.90;;;;;;5092402;28;20482;-64
2022/08/18 05:03:25;;;;;;;17.38;7.20;;;18.90;99.90;;;;;;5075232;28;20381;-64
2022/08/18 05:05:57;;;;;;;19.85;7.63;;;19.40;99.90;;;;;;5092382;28;20132;-63
2022/08/18 05:08:24;;;;;;;14.18;5.75;;;19.20;99.90;;;;;;5074729;28;20130;-63
2022/08/18 05:10:56;;;;;;;19.40;6.43;;;19.30;99.90;;;;;;5092751;28;20086;-64
2022/08/18 05:13:22;;;;;;;18.08;7.72;;;19.20;99.90;;;;;;5093187;28;20544;-63
2022/08/18 05:15:56;;;;;;;16.83;7.70;;;19.20;99.90;;;;;;5093477;28;20035;-64
2022/08/18 05:18:25;;;;;;;21.10;9.57;;;19.10;99.90;;;;;;5092126;28;20288;-63
2022/08/18 05:20:52;;;;;;;16.38;7.28;;;19.30;99.90;;;;;;5081339;28;20043;-63
2022/08/18 05:23:21;;;;;;;16.80;7.00;;;19.00;99.90;;;;;;5091856;28;20122;-63
2022/08/18 05:25:47;;;;;;;17.10;6.10;;;19.20;99.90;;;;;;5092771;28;20158;-64
2022/08/18 05:28:14;;;;;;;22.92;6.93;;;19.30;99.90;;;;;;5090976;28;20142;-63
2022/08/18 05:30:40;;;;;;;16.10;5.72;;;19.00;99.90;;;;;;5088684;28;20036;-63
2022/08/18 05:33:09;;;;;;;19.20;6.10;;;19.30;99.90;;;;;;5091222;28;20550;-64
2022/08/18 05:35:46;;;;;;;16.38;5.57;;;19.50;99.90;;;;;;5090062;28;20307;-63
2022/08/18 05:38:38;;;;;;;15.02;4.55;;;19.10;99.90;;;;;;5091283;28;20124;-62
2022/08/18 05:41:10;;;;;;;16.25;4.90;;;19.10;99.90;;;;;;5090041;28;20584;-64
2022/08/18 05:43:38;;;;;;;16.10;5.70;;;19.20;99.90;;;;;;5092657;28;20039;-63
2022/08/18 05:46:06;;;;;;;20.45;6.00;;;19.10;99.90;;;;;;5091569;28;20485;-63
2022/08/18 05:48:32;;;;;;;18.35;4.85;;;19.60;99.90;;;;;;5091974;28;20047;-63
2022/08/18 05:51:28;;;;;;;18.73;5.57;;;19.40;99.90;;;;;;5074178;28;20526;-63
2022/08/18 05:56:48;;;;;;;15.27;4.88;;;19.40;99.90;;;;;;5091724;28;20039;-62
2022/08/18 05:59:25;;;;;;;18.05;5.20;;;19.30;99.90;;;;;;5088821;28;20040;-63
2022/08/18 06:01:57;;;;;;;12.82;4.13;;;19.10;99.90;;;;;;5088727;28;20044;-63
2022/08/18 06:04:37;;;;;;;17.45;4.45;;;19.20;99.90;;;;;;5089190;28;20225;-63
2022/08/18 06:07:07;;;;;;;16.77;4.32;;;19.20;99.90;;;;;;5092164;28;20031;-63
2022/08/18 06:09:49;;;;;;;21.70;5.07;;;19.70;99.90;;;;;;5089473;28;20035;-64
2022/08/18 06:12:24;;;;;;;17.55;4.50;;;19.70;99.90;;;;;;5090763;28;20339;-64
2022/08/18 06:14:51;;;;;;;20.00;5.57;;;19.60;99.90;;;;;;5087681;28;20039;-64
2022/08/18 06:17:59;;;;;;;17.30;5.03;;;19.70;99.90;;;;;;5089128;28;20097;-64
2022/08/18 06:20:59;;;;;;;17.20;4.72;;;19.70;99.90;;;;;;5087135;28;20116;-64
2022/08/18 06:23:34;;;;;;;21.60;5.00;;;19.60;99.90;;;;;;5070752;28;20071;-64
2022/08/18 06:26:19;;;;;;;15.43;4.70;;;19.20;99.90;;;;;;5089923;28;20192;-64
2022/08/18 06:28:45;;;;;;;22.00;5.72;;;19.10;99.90;;;;;;5089420;28;20050;-64
2022/08/18 06:31:21;;;;;;;21.92;5.05;;;19.20;99.90;;;;;;5087814;28;20448;-64
2022/08/18 06:33:50;;;;;;;17.80;4.55;;;19.20;99.90;;;;;;5088054;28;20281;-65
2022/08/18 06:36:36;;;;;;;13.50;4.63;;;19.30;99.90;;;;;;5089050;28;20047;-65
2022/08/18 06:39:25;;;;;;;17.90;5.82;;;19.70;99.90;;;;;;5091225;28;20602;-64
2022/08/18 06:41:52;;;;;;;19.17;5.15;;;19.30;99.90;;;;;;5105590;27;20133;-64
2022/08/18 06:44:43;;;;;;;16.88;5.60;;;19.40;99.90;;;;;;5089377;28;20552;-64
2022/08/18 06:47:39;;;;;;;14.50;5.60;;;19.70;99.90;;;;;;5089399;28;20055;-64
2022/08/18 06:50:21;;;;;;;15.55;5.78;;;19.40;99.90;;;;;;5073030;28;20108;-64
2022/08/18 06:52:54;;;;;;;17.25;5.90;;;19.30;99.90;;;;;;5089183;28;20097;-64
2022/08/18 06:55:32;;;;;;;19.92;6.32;;;19.30;99.90;;;;;;5088468;28;20241;-64
2022/08/18 06:58:25;;;;;;;16.38;6.38;;;19.60;99.90;;;;;;5089642;28;20135;-64
2022/08/18 07:00:50;;;;;;;14.65;5.72;;;19.40;99.90;;;;;;5090037;28;20048;-64
2022/08/18 07:03:47;;;;;;;12.40;5.53;;;19.40;99.90;;;;;;5079241;28;20044;-65
2022/08/18 07:06:21;;;;;;;12.10;4.40;;;19.60;99.90;;;;;;5084974;28;20134;-64
2022/08/18 07:08:49;;;;;;;14.60;4.10;;;19.20;99.90;;;;;;5108031;28;20689;-64
2022/08/18 07:11:20;;;;;;;17.70;4.38;;;19.40;99.90;;;;;;5090806;28;20044;-64
2022/08/18 07:13:49;;;;;;;15.60;4.57;;;19.20;99.90;;;;;;5089463;28;20482;-64
2022/08/18 07:16:20;;;;;;;20.08;4.00;;;19.20;99.90;;;;;;5088761;28;20051;-65
2022/08/18 07:18:46;;;;;;;16.90;4.55;;;19.00;99.90;;;;;;5089386;28;20122;-65
2022/08/18 07:21:27;;;;;;;14.07;4.40;;;19.20;99.90;;;;;;5088119;28;20535;-65
2022/08/18 07:24:05;;;;;;;16.50;4.53;;;18.70;99.90;;;;;;5087823;28;20493;-65
2022/08/18 07:27:10;;;;;;;17.83;4.50;;;18.60;99.90;;;;;;5088477;28;20122;-65
2022/08/18 07:29:40;;;;;;;15.95;3.53;;;18.80;99.90;;;;;;5087663;28;20496;-64
2022/08/18 07:32:19;;;;;;;13.85;4.13;;;19.00;99.90;;;;;;5086543;28;20044;-65
2022/08/18 07:34:53;;;;;;;14.88;4.28;;;18.70;99.90;;;;;;5088935;28;20409;-64
2022/08/18 07:37:42;;;;;;;15.50;3.58;;;19.20;99.90;;;;;;5090553;28;20027;-63
2022/08/18 07:40:30;;;;;;;15.10;3.90;;;19.00;99.90;;;;;;5088644;28;20252;-63
2022/08/18 07:43:26;;;;;;;11.50;3.13;;;19.00;99.90;;;;;;5089123;28;20306;-64
2022/08/18 07:46:02;;;;;;;10.70;2.65;;;19.10;99.90;;;;;;5065712;28;20063;-64
2022/08/18 07:48:32;;;;;;;9.02;2.20;;;19.60;99.90;;;;;;5094872;28;20142;-64
2022/08/18 07:51:06;;;;;;;14.30;3.00;;;19.80;99.90;;;;;;5094748;28;20456;-64
2022/08/18 07:53:41;;;;;;;14.52;2.42;;;19.90;99.90;;;;;;5093235;28;20039;-65
2022/08/18 07:56:25;;;;;;;10.82;2.40;;;19.90;99.90;;;;;;5094093;28;20268;-65
2022/08/18 07:59:08;;;;;;;11.88;2.88;;;19.90;99.90;;;;;;5094085;28;20205;-64
2022/08/18 08:01:46;;;;;;;10.48;2.65;;;20.10;99.90;;;;;;5094227;28;20138;-65
2022/08/18 08:04:34;;;;;;;13.00;2.58;;;19.80;99.90;;;;;;5092975;28;20051;-64
2022/08/18 08:07:04;;;;;;;13.93;2.75;;;19.60;99.90;;;;;;5093928;28;20059;-65
2022/08/18 08:09:52;;;;;;;13.25;2.90;;;19.60;99.90;;;;;;5093806;28;20543;-65
2022/08/18 08:12:42;;;;;;;9.98;2.50;;;19.80;99.90;;;;;;5093637;28;20135;-64
2022/08/18 08:15:20;;;;;;;11.48;2.15;;;19.70;99.90;;;;;;5093016;28;20043;-64
2022/08/18 08:17:52;;;;;;;10.80;2.10;;;19.60;99.90;;;;;;5086992;28;20813;-64
2022/08/18 08:20:21;;;;;;;8.40;2.00;;;19.20;99.90;;;;;;5093486;28;20055;-64
2022/08/18 08:23:02;;;;;;;5.95;1.20;;;19.40;99.90;;;;;;5093454;28;20040;-64
2022/08/18 08:25:50;;;;;;;7.75;1.42;;;19.40;99.90;;;;;;5093321;28;20435;-64
2022/08/18 08:28:28;;;;;;;9.43;2.35;;;19.50;99.90;;;;;;5093149;28;20183;-64
2022/08/18 08:31:08;;;;;;;8.90;1.70;;;19.30;99.90;;;;;;5093469;28;20043;-63
2022/08/18 08:33:43;;;;;;;6.65;1.13;;;19.50;99.90;;;;;;5093119;28;20035;-64
2022/08/18 08:36:24;;;;;;;8.65;1.27;;;19.30;99.90;;;;;;5076323;28;20043;-63
2022/08/18 08:39:02;;;;;;;9.77;1.30;;;19.20;99.90;;;;;;5093336;28;20509;-64
2022/08/18 08:41:50;;;;;;;11.75;1.70;;;19.20;99.90;;;;;;5093346;28;20087;-64
2022/08/18 08:44:39;;;;;;;9.38;1.55;;;19.40;99.90;;;;;;5094428;28;20035;-63
2022/08/18 08:47:25;;;;;;;9.07;2.10;;;19.20;99.90;;;;;;5093692;28;20039;-64
2022/08/18 08:49:58;;;;;;;8.77;2.45;;;19.00;99.90;;;;;;5092258;28;21058;-64
2022/08/18 08:52:35;;;;;;;17.50;2.33;;;19.30;99.90;;;;;;5092639;28;20279;-64
2022/08/18 08:55:08;;;;;;;8.90;1.70;;;19.00;99.90;;;;;;5093442;28;20356;-65
2022/08/18 08:58:00;;;;;;;10.27;2.33;;;19.20;99.90;;;;;;5091685;28;20075;-64
2022/08/18 09:00:27;;;;;;;9.73;1.90;;;19.10;99.90;;;;;;5094103;27;20111;-64
2022/08/18 09:02:52;;;;;;;12.77;2.30;;;19.60;99.90;;;;;;5076120;28;20043;-64
2022/08/18 09:05:23;;;;;;;10.38;2.45;;;19.60;99.90;;;;;;5091213;28;20055;-64
2022/08/18 09:08:01;;;;;;;7.95;2.03;;;19.60;99.90;;;;;;5092402;28;20143;-65
2022/08/18 09:10:39;;;;;;;8.48;2.22;;;19.60;99.90;;;;;;5092075;28;20031;-64
2022/08/18 09:13:40;;;;;;;13.63;2.33;;;19.80;99.90;;;;;;5091719;28;20075;-65
2022/08/18 09:16:18;;;;;;;8.00;2.00;;;19.90;99.90;;;;;;5089051;28;20070;-65
2022/08/18 09:19:07;;;;;;;8.93;1.55;;;20.10;99.90;;;;;;5093216;28;20525;-64
2022/08/18 09:21:43;;;;;;;8.35;1.48;;;20.20;99.90;;;;;;5084673;28;20048;-64
2022/08/18 09:24:09;;;;;;;9.13;1.27;;;20.70;99.90;;;;;;5109503;27;20657;-64
2022/08/18 09:27:14;;;;;;;6.55;1.40;;;20.60;99.90;;;;;;5093876;28;20043;-66
2022/08/18 09:30:01;;;;;;;9.25;1.40;;;20.50;99.90;;;;;;5056820;28;20128;-64
2022/08/18 09:32:26;;;;;;;8.30;1.20;;;20.70;99.90;;;;;;5094570;28;20086;-66
2022/08/18 09:35:19;;;;;;;7.85;1.10;;;20.80;99.90;;;;;;5092926;28;20579;-65
2022/08/18 09:37:44;;;;;;;8.70;1.65;;;20.90;99.90;;;;;;5093419;28;20039;-64
2022/08/18 09:43:09;;;;;;;5.28;1.20;;;20.70;99.90;;;;;;5092711;28;20107;-64
2022/08/18 09:45:55;;;;;;;9.20;1.20;;;20.60;99.90;;;;;;5093210;28;20482;-64
2022/08/18 09:48:25;;;;;;;10.20;1.60;;;20.50;99.90;;;;;;5092765;28;20553;-65
2022/08/18 09:51:14;;;;;;;6.50;1.30;;;20.40;99.90;;;;;;5092519;28;20071;-64
2022/08/18 09:53:46;;;;;;;7.45;0.98;;;20.20;99.90;;;;;;5092305;28;20047;-65
2022/08/18 09:56:50;;;;;;;7.10;1.58;;;20.10;99.90;;;;;;5092518;28;20042;-65
2022/08/18 09:59:31;;;;;;;7.10;1.65;;;19.90;99.90;;;;;;5057826;28;20062;-66
2022/08/18 10:02:00;;;;;;;6.93;1.40;;;20.00;99.90;;;;;;5075387;28;20111;-65
2022/08/18 10:04:30;;;;;;;8.90;1.50;;;19.90;99.90;;;;;;5091381;28;20091;-63
2022/08/18 10:07:30;;;;;;;8.23;1.70;;;20.00;99.90;;;;;;5091508;28;20047;-65
2022/08/18 10:10:17;;;;;;;8.15;1.77;;;20.40;99.90;;;;;;5090085;28;20050;-65
2022/08/18 10:13:02;;;;;;;11.82;1.92;;;20.30;99.90;;;;;;5071552;28;20131;-64
2022/08/18 10:15:34;;;;;;;7.82;1.45;;;20.50;99.90;;;;;;5089247;28;20044;-65
2022/08/18 10:18:18;;;;;;;11.07;2.10;;;20.80;99.90;;;;;;5088892;28;20047;-66
2022/08/18 10:21:20;;;;;;;10.35;1.50;;;20.90;99.90;;;;;;5071700;28;20038;-65
2022/08/18 10:24:14;;;;;;;9.75;1.63;;;21.30;99.90;;;;;;5091129;28;20047;-66
2022/08/18 10:26:40;;;;;;;7.50;1.80;;;21.30;99.90;;;;;;5089902;28;20061;-65
2022/08/18 10:29:23;;;;;;;10.35;1.38;;;21.30;99.90;;;;;;5071754;28;20040;-66
2022/08/18 10:31:55;;;;;;;9.07;1.02;;;21.30;99.90;;;;;;5087984;28;20130;-65
2022/08/18 10:34:39;;;;;;;7.38;1.13;;;21.20;99.90;;;;;;5090040;28;20414;-65
2022/08/18 10:37:28;;;;;;;10.07;1.13;;;21.30;99.90;;;;;;5088308;28;20116;-64
2022/08/18 10:39:58;;;;;;;4.05;0.70;;;21.10;99.90;;;;;;5088511;28;20122;-64
2022/08/18 10:42:34;;;;;;;5.05;0.60;;;21.10;99.90;;;;;;5088333;28;20035;-64
2022/08/18 10:45:21;;;;;;;5.15;0.63;;;20.80;99.90;;;;;;5088490;28;20335;-63
2022/08/18 10:48:17;;;;;;;4.68;0.57;;;20.90;99.90;;;;;;5090652;28;20176;-64
2022/08/18 10:51:11;;;;;;;5.25;0.93;;;21.10;99.90;;;;;;5090681;28;20058;-65
2022/08/18 10:54:02;;;;;;;5.00;0.60;;;21.50;99.90;;;;;;5078923;27;20085;-62
2022/08/18 10:56:38;;;;;;;3.95;0.63;;;21.40;99.90;;;;;;5090250;28;20082;-63
2022/08/18 10:59:31;;;;;;;6.13;0.70;;;21.60;99.90;;;;;;5090979;28;20070;-63
2022/08/18 11:02:33;;;;;;;3.72;0.60;;;21.60;99.90;;;;;;5090484;28;20047;-63
2022/08/18 11:05:05;;;;;;;4.88;0.70;;;21.70;99.90;;;;;;5089886;28;20074;-63
2022/08/18 11:07:31;;;;;;;5.97;0.55;;;21.70;99.90;;;;;;5089648;28;20181;-63
2022/08/18 11:09:58;;;;;;;6.53;0.68;;;21.60;99.90;;;;;;5089621;28;20035;-63
2022/08/18 11:13:02;;;;;;;4.25;0.60;;;21.40;99.90;;;;;;5090554;28;20343;-64
2022/08/18 11:16:02;;;;;;;4.55;0.60;;;21.10;99.90;;;;;;5051874;28;20476;-64
2022/08/18 11:18:57;;;;;;;4.47;0.80;;;21.10;99.90;;;;;;5060145;28;20073;-63
2022/08/18 11:21:35;;;;;;;4.30;0.60;;;21.10;99.90;;;;;;5092737;28;20144;-63
2022/08/18 11:24:08;;;;;;;4.25;0.60;;;21.30;99.90;;;;;;5091158;28;20449;-63
2022/08/18 11:26:38;;;;;;;3.63;0.65;;;21.40;99.90;;;;;;5093839;28;20127;-65
2022/08/18 11:29:25;;;;;;;3.75;0.60;;;21.60;99.90;;;;;;5094953;28;20066;-64
2022/08/18 11:31:57;;;;;;;3.05;0.40;;;21.70;99.90;;;;;;5077506;28;20878;-64
2022/08/18 11:34:44;;;;;;;2.30;0.60;;;21.60;99.90;;;;;;5094167;28;20497;-64
2022/08/18 11:37:42;;;;;;;3.88;0.60;;;21.40;99.90;;;;;;5076145;28;20051;-65
2022/08/18 11:40:28;;;;;;;6.95;0.60;;;21.30;99.90;;;;;;5093020;28;20683;-65
2022/08/18 11:43:10;;;;;;;5.63;0.68;;;21.00;99.90;;;;;;5092194;28;20111;-65
2022/08/18 11:45:51;;;;;;;2.65;0.45;;;20.60;99.90;;;;;;5092592;28;20506;-65
2022/08/18 11:48:35;;;;;;;3.45;0.80;;;20.70;99.90;;;;;;5091402;28;20058;-65
2022/08/18 11:51:10;;;;;;;4.32;0.80;;;20.60;99.90;;;;;;5092409;28;20048;-66
2022/08/18 11:53:49;;;;;;;3.53;0.70;;;20.60;99.90;;;;;;5092861;28;20040;-65
2022/08/18 11:56:20;;;;;;;3.63;0.63;;;20.70;99.90;;;;;;5110157;27;20262;-65
2022/08/18 11:59:04;;;;;;;4.18;0.70;;;21.00;99.90;;;;;;5092440;28;20283;-65
2022/08/18 12:01:42;;;;;;;3.40;0.60;;;21.10;99.90;;;;;;5092270;28;20421;-65
2022/08/18 12:04:29;;;;;;;3.08;0.52;;;21.60;99.90;;;;;;5092187;28;20474;-65
2022/08/18 12:07:04;;;;;;;4.35;0.52;;;21.90;99.90;;;;;;5094346;28;20135;-66
2022/08/18 12:09:45;;;;;;;3.45;0.40;;;22.00;99.90;;;;;;5077344;28;20600;-65
2022/08/18 12:12:25;;;;;;;4.72;0.77;;;22.30;99.90;;;;;;5080166;28;20058;-66
2022/08/18 12:15:13;;;;;;;5.07;0.85;;;22.40;99.90;;;;;;5079005;28;20054;-65
2022/08/18 12:17:40;;;;;;;6.30;0.93;;;22.70;99.90;;;;;;5095179;28;20046;-65
2022/08/18 12:20:08;;;;;;;2.45;0.60;;;22.70;99.90;;;;;;5095731;28;20042;-66
2022/08/18 12:22:36;;;;;;;4.55;1.02;;;22.80;99.90;;;;;;5096065;28;20779;-65
2022/08/18 12:25:06;;;;;;;2.88;0.52;;;22.90;99.90;;;;;;5078349;28;20220;-65
2022/08/18 12:27:33;;;;;;;4.05;0.70;;;22.70;99.90;;;;;;5093443;28;20401;-66
2022/08/18 12:30:01;;;;;;;4.50;0.60;;;23.00;99.90;;;;;;5089753;28;20043;-63
2022/08/18 12:32:29;;;;;;;6.57;0.50;;;23.20;99.90;;;;;;5085985;28;20052;-63
2022/08/18 12:34:55;;;;;;;4.78;0.57;;;23.70;99.90;;;;;;5092211;28;20276;-63
2022/08/18 12:37:24;;;;;;;3.75;0.50;;;24.00;99.90;;;;;;5084681;28;20701;-65
2022/08/18 12:39:50;;;;;;;3.05;0.45;;;24.00;99.90;;;;;;5083223;28;20039;-63
2022/08/18 12:42:16;;;;;;;2.53;0.40;;;24.10;99.90;;;;;;5074295;28;20516;-66
2022/08/18 12:44:42;;;;;;;5.00;0.70;;;24.10;99.90;;;;;;5073050;28;20050;-66
2022/08/18 12:47:14;;;;;;;2.80;0.50;;;24.30;99.90;;;;;;5090601;28;20180;-66
2022/08/18 12:49:40;;;;;;;1.83;0.47;;;23.90;99.90;;;;;;5098141;28;20134;-64
2022/08/18 12:52:06;;;;;;;3.17;1.13;;;23.70;99.90;;;;;;5081312;28;21354;-64
2022/08/18 12:54:33;;;;;;;3.60;0.63;;;23.70;99.90;;;;;;5099478;28;20277;-62
2022/08/18 12:56:59;;;;;;;2.60;0.77;;;23.50;99.90;;;;;;5082813;28;20051;-65
2022/08/18 12:59:25;;;;;;;1.98;0.50;;;23.50;99.90;;;;;;5099841;28;20043;-62
2022/08/18 13:01:51;;;;;;;2.25;0.52;;;24.40;99.90;;;;;;5098819;28;20637;-62
2022/08/18 13:04:17;;;;;;;2.72;0.40;;;25.00;99.90;;;;;;5098237;28;20056;-62
2022/08/18 13:06:52;;;;;;;2.80;0.50;;;25.40;99.90;;;;;;5099083;28;20320;-64
2022/08/18 13:09:19;;;;;;;1.80;0.60;;;25.70;99.90;;;;;;5101514;28;20044;-62
2022/08/18 13:11:45;;;;;;;2.65;0.57;;;26.10;99.90;;;;;;5082532;28;20046;-65
2022/08/18 13:14:10;;;;;;;2.10;0.40;;;26.20;99.90;;;;;;5090411;28;20040;-63
2022/08/18 13:16:39;;;;;;;3.78;0.40;;;26.20;99.90;;;;;;5090585;28;20048;-62
2022/08/18 13:19:07;;;;;;;1.73;0.50;;;26.20;99.90;;;;;;5090558;28;20530;-62
2022/08/18 13:21:32;;;;;;;3.28;0.40;;;26.40;99.90;;;;;;5090794;28;20239;-65
2022/08/18 13:23:59;;;;;;;4.13;0.45;;;26.40;99.90;;;;;;5090584;28;20531;-64
2022/08/18 13:26:29;;;;;;;1.77;0.30;;;26.70;99.90;;;;;;5090998;28;20173;-62
2022/08/18 13:28:56;;;;;;;1.88;0.30;;;26.70;99.90;;;;;;5091393;28;20554;-65
2022/08/18 13:31:21;;;;;;;1.60;0.30;;;26.80;99.90;;;;;;5090280;28;20141;-65
2022/08/18 13:33:47;;;;;;;1.95;0.20;;;27.00;99.90;;;;;;5091082;28;20070;-63